createdAt,value
2018-06-11T00:03:01.805Z,21.02
2018-06-11T00:05:30.347Z,20.90
2018-06-11T00:07:58.811Z,20.90
2018-06-11T00:10:27.251Z,20.95
2018-06-11T00:12:55.729Z,20.82
2018-06-11T00:15:24.124Z,20.87
2018-06-11T00:17:52.572Z,20.79
2018-06-11T00:20:21.004Z,20.86
2018-06-11T00:22:49.458Z,20.95
2018-06-11T00:25:17.896Z,20.96
2018-06-11T00:27:46.365Z,20.90
2018-06-11T00:30:14.776Z,20.90
2018-06-11T00:32:43.222Z,20.86
2018-06-11T00:35:11.844Z,20.85
2018-06-11T00:37:40.291Z,20.76
2018-06-11T00:40:08.731Z,20.73
2018-06-11T00:42:37.176Z,20.73
2018-06-11T00:45:05.654Z,20.83
2018-06-11T00:47:34.100Z,20.80
2018-06-11T00:50:02.534Z,20.80
2018-06-11T00:52:30.994Z,20.74
2018-06-11T00:54:59.488Z,20.68
2018-06-11T00:57:27.939Z,20.62
2018-06-11T00:59:56.365Z,20.58
2018-06-11T01:02:25.022Z,20.52
2018-06-11T01:04:53.456Z,20.53
2018-06-11T01:07:21.876Z,20.56
2018-06-11T01:09:50.339Z,20.51
2018-06-11T01:12:18.775Z,20.43
2018-06-11T01:14:47.255Z,20.42
2018-06-11T01:17:15.701Z,20.42
2018-06-11T01:19:44.125Z,20.37
2018-06-11T01:22:13.052Z,20.32
2018-06-11T01:24:41.470Z,20.30
2018-06-11T01:27:09.866Z,20.26
2018-06-11T01:29:38.393Z,20.18
2018-06-11T01:32:06.819Z,20.22
2018-06-11T01:34:35.255Z,20.15
2018-06-11T01:37:03.684Z,20.12
2018-06-11T01:39:32.115Z,20.06
2018-06-11T01:42:00.544Z,20.09
2018-06-11T01:45:58.423Z,20.05
2018-06-11T01:48:26.821Z,20.09
2018-06-11T01:50:55.208Z,20.03
2018-06-11T01:53:23.641Z,20.07
2018-06-11T01:55:52.192Z,20.15
2018-06-11T01:58:20.627Z,20.07
2018-06-11T02:00:49.051Z,20.03
2018-06-11T02:03:17.491Z,19.99
2018-06-11T02:05:46.019Z,20.09
2018-06-11T02:08:14.599Z,20.00
2018-06-11T02:10:43.037Z,20.05
2018-06-11T02:13:11.547Z,20.01
2018-06-11T02:15:39.976Z,20.00
2018-06-11T02:18:08.683Z,19.97
2018-06-11T02:20:37.155Z,19.74
2018-06-11T02:23:05.603Z,19.93
2018-06-11T02:25:34.104Z,19.92
2018-06-11T02:28:03.252Z,19.99
2018-06-11T02:30:31.691Z,19.90
2018-06-11T02:33:00.560Z,19.97
2018-06-11T02:35:28.995Z,19.87
2018-06-11T02:37:57.571Z,19.97
2018-06-11T02:40:26.038Z,19.90
2018-06-11T02:42:54.505Z,19.89
2018-06-11T02:45:22.922Z,19.67
2018-06-11T02:47:51.365Z,19.94
2018-06-11T02:50:19.831Z,20.82
2018-06-11T02:52:48.225Z,20.77
2018-06-11T02:55:16.648Z,20.16
2018-06-11T02:57:45.068Z,20.56
2018-06-11T03:00:13.483Z,21.29
2018-06-11T03:02:42.155Z,22.87
2018-06-11T03:05:10.590Z,21.36
2018-06-11T03:07:39.243Z,21.90
2018-06-11T03:10:07.743Z,20.67
2018-06-11T03:12:36.227Z,20.36
2018-06-11T03:15:04.753Z,20.27
2018-06-11T03:17:33.157Z,22.23
2018-06-11T03:20:01.627Z,21.13
2018-06-11T03:22:30.035Z,20.54
2018-06-11T03:24:58.483Z,20.31
2018-06-11T03:27:26.911Z,20.25
2018-06-11T03:29:55.342Z,20.26
2018-06-11T03:32:24.099Z,20.27
2018-06-11T03:34:52.519Z,20.28
2018-06-11T03:37:21.351Z,20.32
2018-06-11T03:39:49.940Z,20.09
2018-06-11T03:42:18.376Z,19.88
2018-06-11T03:44:46.835Z,20.21
2018-06-11T03:47:15.268Z,20.22
2018-06-11T03:49:43.653Z,20.15
2018-06-11T03:52:12.070Z,20.21
2018-06-11T03:54:40.476Z,20.30
2018-06-11T03:57:08.919Z,20.43
2018-06-11T03:59:37.334Z,20.30
2018-06-11T04:02:05.812Z,20.31
2018-06-11T04:04:34.263Z,20.29
2018-06-11T04:07:03.027Z,20.46
2018-06-11T04:09:31.583Z,20.36
2018-06-11T04:12:00.257Z,20.24
2018-06-11T04:14:28.957Z,20.36
2018-06-11T04:16:57.416Z,20.42
2018-06-11T04:19:26.003Z,20.56
2018-06-11T04:21:54.441Z,20.54
2018-06-11T04:24:22.863Z,20.62
2018-06-11T04:26:52.356Z,20.47
2018-06-11T04:29:20.831Z,20.75
2018-06-11T04:31:49.264Z,20.87
2018-06-11T04:34:17.720Z,20.85
2018-06-11T04:36:46.159Z,20.95
2018-06-11T04:39:14.717Z,21.19
2018-06-11T04:41:43.178Z,20.97
2018-06-11T04:44:11.607Z,21.23
2018-06-11T04:46:40.052Z,21.07
2018-06-11T04:49:08.516Z,21.23
2018-06-11T04:51:36.987Z,21.29
2018-06-11T04:54:05.487Z,21.34
2018-06-11T04:56:34.353Z,21.57
2018-06-11T04:59:02.746Z,21.69
2018-06-11T05:01:31.204Z,21.55
2018-06-11T05:03:59.620Z,21.48
2018-06-11T05:06:28.069Z,21.49
2018-06-11T05:08:56.760Z,21.47
2018-06-11T05:11:25.222Z,21.47
2018-06-11T05:13:53.668Z,21.62
2018-06-11T05:16:22.172Z,21.76
2018-06-11T05:18:50.834Z,21.74
2018-06-11T05:21:19.253Z,21.82
2018-06-11T05:23:47.659Z,22.05
2018-06-11T05:26:16.094Z,22.08
2018-06-11T05:28:44.524Z,22.16
2018-06-11T05:31:12.924Z,22.08
2018-06-11T05:33:41.358Z,22.19
2018-06-11T05:36:09.780Z,22.25
2018-06-11T05:38:38.229Z,22.23
2018-06-11T05:41:07.227Z,22.37
2018-06-11T05:43:35.636Z,22.53
2018-06-11T05:46:04.093Z,22.34
2018-06-11T05:48:32.500Z,22.68
2018-06-11T05:51:00.984Z,22.82
2018-06-11T05:53:29.440Z,22.60
2018-06-11T05:55:57.859Z,22.93
2018-06-11T05:58:26.303Z,22.89
2018-06-11T06:00:54.715Z,22.77
2018-06-11T06:03:23.174Z,23.16
2018-06-11T06:05:51.583Z,23.15
2018-06-11T06:08:20.197Z,23.33
2018-06-11T06:10:48.695Z,23.33
2018-06-11T06:13:17.130Z,23.45
2018-06-11T06:15:45.789Z,23.25
2018-06-11T06:18:14.438Z,23.35
2018-06-11T06:20:42.869Z,23.44
2018-06-11T06:23:11.259Z,23.51
2018-06-11T06:25:39.944Z,23.72
2018-06-11T06:34:52.461Z,23.54
2018-06-11T06:37:20.813Z,23.78
2018-06-11T06:39:49.440Z,23.79
2018-06-11T06:42:17.887Z,23.63
2018-06-11T06:44:46.441Z,23.73
2018-06-11T06:47:14.868Z,23.89
2018-06-11T06:49:43.298Z,23.73
2018-06-11T06:52:11.778Z,23.69
2018-06-11T06:54:40.209Z,24.16
2018-06-11T06:57:08.654Z,24.60
2018-06-11T06:59:37.098Z,24.16
2018-06-11T07:02:05.728Z,23.88
2018-06-11T07:04:34.388Z,24.32
2018-06-11T07:07:02.867Z,24.62
2018-06-11T07:09:31.273Z,24.63
2018-06-11T07:11:59.739Z,24.29
2018-06-11T07:14:28.158Z,24.42
2018-06-11T07:16:56.913Z,24.74
2018-06-11T07:19:25.355Z,24.45
2018-06-11T07:21:53.822Z,24.72
2018-06-11T07:24:22.257Z,24.74
2018-06-11T07:26:50.713Z,24.51
2018-06-11T07:29:19.116Z,24.69
2018-06-11T07:31:48.257Z,25.21
2018-06-11T07:34:16.679Z,25.50
2018-06-11T07:36:45.105Z,25.40
2018-06-11T07:39:13.753Z,25.58
2018-06-11T07:41:42.279Z,25.71
2018-06-11T07:44:10.710Z,25.28
2018-06-11T07:46:39.135Z,25.32
2018-06-11T07:49:07.565Z,26.01
2018-06-11T07:51:36.017Z,26.20
2018-06-11T07:54:04.454Z,26.31
2018-06-11T07:56:32.913Z,26.45
2018-06-11T07:59:01.295Z,26.44
2018-06-11T08:01:29.815Z,26.62
2018-06-11T08:03:58.188Z,26.43
2018-06-11T08:06:26.672Z,26.71
2018-06-11T08:08:55.341Z,26.95
2018-06-11T08:11:23.772Z,26.97
2018-06-11T08:13:52.475Z,26.82
2018-06-11T08:16:20.867Z,26.29
2018-06-11T08:18:49.294Z,26.95
2018-06-11T08:21:17.929Z,27.00
2018-06-11T08:23:46.322Z,27.05
2018-06-11T08:26:14.746Z,27.15
2018-06-11T08:28:43.154Z,27.04
2018-06-11T08:31:11.599Z,27.17
2018-06-11T08:33:40.011Z,27.53
2018-06-11T08:36:08.551Z,27.54
2018-06-11T08:38:37.187Z,27.74
2018-06-11T08:41:05.612Z,27.87
2018-06-11T08:43:34.068Z,27.63
2018-06-11T08:46:02.481Z,27.90
2018-06-11T08:48:30.934Z,27.76
2018-06-11T08:50:59.424Z,28.08
2018-06-11T08:53:27.855Z,28.03
2018-06-11T08:55:56.265Z,28.30
2018-06-11T08:58:24.675Z,27.95
2018-06-11T09:00:53.118Z,28.92
2018-06-11T09:03:21.528Z,28.72
2018-06-11T09:05:49.966Z,28.94
2018-06-11T09:08:18.381Z,29.04
2018-06-11T09:10:46.792Z,29.03
2018-06-11T09:13:15.456Z,29.36
2018-06-11T09:15:44.136Z,29.06
2018-06-11T09:18:13.155Z,29.33
2018-06-11T09:20:41.456Z,28.97
2018-06-11T09:23:09.856Z,29.46
2018-06-11T09:25:38.273Z,29.54
2018-06-11T09:28:06.681Z,29.85
2018-06-11T09:30:35.104Z,30.35
2018-06-11T09:33:03.768Z,30.36
2018-06-11T09:35:32.188Z,29.60
2018-06-11T09:38:00.650Z,30.00
2018-06-11T09:40:29.059Z,29.56
2018-06-11T09:42:57.468Z,30.19
2018-06-11T09:45:25.979Z,30.42
2018-06-11T09:47:54.387Z,29.69
2018-06-11T09:50:22.841Z,30.21
2018-06-11T09:52:51.274Z,29.43
2018-06-11T09:55:19.643Z,29.61
2018-06-11T09:57:48.044Z,30.14
2018-06-11T10:00:21.726Z,30.50
2018-06-11T10:02:50.155Z,29.96
2018-06-11T10:05:18.587Z,30.42
2018-06-11T10:07:46.981Z,30.15
2018-06-11T10:10:15.386Z,30.44
2018-06-11T10:12:43.835Z,30.55
2018-06-11T10:15:12.249Z,30.98
2018-06-11T10:17:40.648Z,30.49
2018-06-11T10:20:09.066Z,30.14
2018-06-11T10:22:37.479Z,31.00
2018-06-11T10:25:05.958Z,30.99
2018-06-11T10:27:34.379Z,31.02
2018-06-11T10:30:02.947Z,31.05
2018-06-11T10:32:31.684Z,31.33
2018-06-11T10:35:00.331Z,30.99
2018-06-11T10:37:29.076Z,30.75
2018-06-11T10:39:57.443Z,31.03
2018-06-11T10:42:25.881Z,31.03
2018-06-11T10:44:54.342Z,31.08
2018-06-11T10:47:22.728Z,31.13
2018-06-11T10:49:51.129Z,31.13
2018-06-11T10:52:19.522Z,31.14
2018-06-11T10:54:47.939Z,30.86
2018-06-11T10:57:16.342Z,31.48
2018-06-11T10:59:44.801Z,31.96
2018-06-11T11:02:13.252Z,31.84
2018-06-11T11:04:41.829Z,31.94
2018-06-11T11:07:10.543Z,32.37
2018-06-11T11:09:38.938Z,32.14
2018-06-11T11:12:07.612Z,31.84
2018-06-11T11:14:36.318Z,32.50
2018-06-11T11:17:04.721Z,32.25
2018-06-11T11:19:33.147Z,32.38
2018-06-11T11:22:01.755Z,32.48
2018-06-11T11:24:30.414Z,32.49
2018-06-11T11:26:58.825Z,32.17
2018-06-11T11:29:27.260Z,32.01
2018-06-11T11:31:55.882Z,33.08
2018-06-11T11:34:24.599Z,33.54
2018-06-11T11:36:53.271Z,33.98
2018-06-11T11:39:21.710Z,34.98
2018-06-11T11:41:50.110Z,35.18
2018-06-11T11:44:18.514Z,35.02
2018-06-11T11:46:46.948Z,33.62
2018-06-11T11:49:15.339Z,33.65
2018-06-11T11:51:43.785Z,34.39
2018-06-11T11:54:12.172Z,34.59
2018-06-11T11:56:40.574Z,34.99
2018-06-11T11:59:08.999Z,33.28
2018-06-11T12:01:37.432Z,35.78
2018-06-11T12:04:05.867Z,36.33
2018-06-11T12:06:34.263Z,36.64
2018-06-11T12:09:03.003Z,36.92
2018-06-11T12:11:31.399Z,37.99
2018-06-11T12:13:59.924Z,36.20
2018-06-11T12:16:28.381Z,36.65
2018-06-11T12:18:56.800Z,36.14
2018-06-11T12:21:25.228Z,35.72
2018-06-11T12:23:53.615Z,37.55
2018-06-11T12:26:22.031Z,37.67
2018-06-11T12:28:50.518Z,38.27
2018-06-11T12:31:18.988Z,36.30
2018-06-11T12:33:47.359Z,35.19
2018-06-11T12:36:15.968Z,34.90
2018-06-11T12:38:47.603Z,35.55
2018-06-11T12:41:16.882Z,35.80
2018-06-11T12:43:45.342Z,35.91
2018-06-11T12:46:13.749Z,36.43
2018-06-11T12:48:42.156Z,35.67
2018-06-11T12:51:10.626Z,35.96
2018-06-11T12:53:39.236Z,37.03
2018-06-11T12:56:08.114Z,36.36
2018-06-11T12:58:36.547Z,38.17
2018-06-11T13:01:04.988Z,40.50
2018-06-11T13:03:33.440Z,39.76
2018-06-11T13:06:01.872Z,37.43
2018-06-11T13:08:30.484Z,36.17
2018-06-11T13:10:58.916Z,36.70
2018-06-11T13:13:27.457Z,36.31
2018-06-11T13:15:55.883Z,36.68
2018-06-11T13:18:24.343Z,36.98
2018-06-11T13:20:52.772Z,36.55
2018-06-11T13:23:21.193Z,38.23
2018-06-11T13:25:49.640Z,39.97
2018-06-11T13:28:18.047Z,38.74
2018-06-11T13:30:46.457Z,39.28
2018-06-11T13:33:15.220Z,38.54
2018-06-11T13:35:43.626Z,38.48
2018-06-11T13:38:12.028Z,39.79
2018-06-11T13:40:40.445Z,38.24
2018-06-11T13:43:08.847Z,40.87
2018-06-11T13:45:37.338Z,40.82
2018-06-11T13:48:06.247Z,40.78
2018-06-11T13:50:34.673Z,38.86
2018-06-11T13:53:03.088Z,39.46
2018-06-11T13:55:31.508Z,39.16
2018-06-11T13:57:59.965Z,41.27
2018-06-11T14:00:28.363Z,41.12
2018-06-11T14:02:56.798Z,39.38
2018-06-11T14:05:25.208Z,39.19
2018-06-11T14:07:53.668Z,41.24
2018-06-11T14:10:22.163Z,40.51
2018-06-11T14:12:50.595Z,41.64
2018-06-11T14:15:19.063Z,40.22
2018-06-11T14:17:47.479Z,38.53
2018-06-11T14:20:15.902Z,37.40
2018-06-11T14:22:44.382Z,40.41
2018-06-11T14:25:13.053Z,41.21
2018-06-11T14:27:41.511Z,41.56
2018-06-11T14:30:09.970Z,41.29
2018-06-11T14:32:38.412Z,41.94
2018-06-11T14:35:06.923Z,41.47
2018-06-11T14:37:35.372Z,40.95
2018-06-11T14:40:03.911Z,41.37
2018-06-11T14:42:32.444Z,41.51
2018-06-11T14:45:00.884Z,40.94
2018-06-11T14:47:31.128Z,41.16
2018-06-11T14:49:59.568Z,41.40
2018-06-11T14:52:27.968Z,41.37
2018-06-11T14:56:26.139Z,40.69
2018-06-11T14:58:54.810Z,41.68
2018-06-11T15:01:23.784Z,41.99
2018-06-11T15:03:52.230Z,40.36
2018-06-11T15:06:20.648Z,39.56
2018-06-11T15:08:49.088Z,41.54
2018-06-11T15:11:18.117Z,40.83
2018-06-11T15:13:46.974Z,40.30
2018-06-11T15:16:15.384Z,38.55
2018-06-11T15:18:44.038Z,38.36
2018-06-11T15:21:12.512Z,40.42
2018-06-11T15:23:41.136Z,40.19
2018-06-11T15:26:09.761Z,38.81
2018-06-11T15:28:38.184Z,38.27
2018-06-11T15:31:06.997Z,37.96
2018-06-11T15:33:35.430Z,38.94
2018-06-11T15:36:03.852Z,40.16
2018-06-11T15:38:32.264Z,39.66
2018-06-11T15:41:00.960Z,39.21
2018-06-11T15:43:29.396Z,39.08
2018-06-11T15:45:57.806Z,38.48
2018-06-11T15:48:26.245Z,36.97
2018-06-11T15:50:54.828Z,37.01
2018-06-11T15:53:23.359Z,36.10
2018-06-11T15:55:51.793Z,35.50
2018-06-11T15:58:20.189Z,36.29
2018-06-11T16:00:48.607Z,35.74
2018-06-11T16:03:17.029Z,35.53
2018-06-11T16:05:45.447Z,36.14
2018-06-11T16:08:14.095Z,35.27
2018-06-11T16:10:42.520Z,35.22
2018-06-11T16:13:10.985Z,35.69
2018-06-11T16:15:39.456Z,36.61
2018-06-11T16:18:08.004Z,35.68
2018-06-11T16:20:36.504Z,34.44
2018-06-11T16:23:04.923Z,33.65
2018-06-11T16:25:33.392Z,33.63
2018-06-11T16:28:01.819Z,33.53
2018-06-11T16:30:30.462Z,33.24
2018-06-11T16:32:59.149Z,33.44
2018-06-11T16:35:27.811Z,33.39
2018-06-11T16:37:56.224Z,33.10
2018-06-11T16:40:24.639Z,32.98
2018-06-11T16:42:53.058Z,32.54
2018-06-11T16:45:21.497Z,32.68
2018-06-11T16:47:49.924Z,32.25
2018-06-11T16:50:18.421Z,33.05
2018-06-11T16:52:46.897Z,32.69
2018-06-11T16:55:15.399Z,32.87
2018-06-11T16:57:44.016Z,32.63
2018-06-11T17:00:12.494Z,32.32
2018-06-11T17:02:40.915Z,32.21
2018-06-11T17:05:09.369Z,32.15
2018-06-11T17:07:38.053Z,31.81
2018-06-11T17:10:06.825Z,31.97
2018-06-11T17:12:35.319Z,31.95
2018-06-11T17:15:03.972Z,31.60
2018-06-11T17:17:32.395Z,31.38
2018-06-11T17:20:00.819Z,30.92
2018-06-11T17:22:29.497Z,30.57
2018-06-11T17:24:58.074Z,30.79
2018-06-11T17:27:26.548Z,30.59
2018-06-11T17:29:55.311Z,30.39
2018-06-11T17:32:23.715Z,30.76
2018-06-11T17:34:52.166Z,30.28
2018-06-11T17:37:20.760Z,30.48
2018-06-11T17:39:49.223Z,30.49
2018-06-11T17:42:18.157Z,30.37
2018-06-11T17:44:46.596Z,30.31
2018-06-11T17:47:15.047Z,30.03
2018-06-11T17:49:43.491Z,29.70
2018-06-11T17:52:12.085Z,29.65
2018-06-11T17:54:40.490Z,29.74
2018-06-11T17:57:08.913Z,29.84
2018-06-11T17:59:37.400Z,29.69
2018-06-11T18:02:06.148Z,29.33
2018-06-11T18:04:34.607Z,29.18
2018-06-11T18:07:03.094Z,29.29
2018-06-11T18:09:31.501Z,29.32
2018-06-11T18:12:00.107Z,29.14
2018-06-11T18:14:28.576Z,29.02
2018-06-11T18:16:56.954Z,28.93
2018-06-11T18:19:25.378Z,28.75
2018-06-11T18:21:53.793Z,28.93
2018-06-11T18:24:22.388Z,28.58
2018-06-11T18:26:50.941Z,28.60
2018-06-11T18:29:19.517Z,28.59
2018-06-11T18:31:48.336Z,28.42
2018-06-11T18:34:16.782Z,28.61
2018-06-11T18:36:45.214Z,28.41
2018-06-11T18:39:13.971Z,28.15
2018-06-11T18:41:42.406Z,28.06
2018-06-11T18:44:10.881Z,28.13
2018-06-11T18:46:39.334Z,27.76
2018-06-11T18:49:07.728Z,28.06
2018-06-11T18:51:36.213Z,27.82
2018-06-11T18:54:04.642Z,27.74
2018-06-11T18:56:33.168Z,27.67
2018-06-11T18:59:01.592Z,27.69
2018-06-11T19:01:30.008Z,27.68
2018-06-11T19:03:58.550Z,27.74
2018-06-11T19:06:26.980Z,27.72
2018-06-11T19:08:55.486Z,27.53
2018-06-11T19:11:23.916Z,27.46
2018-06-11T19:13:52.354Z,27.54
2018-06-11T19:16:21.044Z,27.30
2018-06-11T19:18:49.502Z,27.35
2018-06-11T19:21:17.926Z,27.35
2018-06-11T19:23:46.406Z,27.38
2018-06-11T19:26:15.231Z,27.45
2018-06-11T19:28:43.627Z,27.39
2018-06-11T19:31:12.076Z,27.29
2018-06-11T19:33:40.540Z,27.52
2018-06-11T19:36:08.979Z,27.43
2018-06-11T19:38:37.721Z,27.32
2018-06-11T19:41:06.195Z,27.11
2018-06-11T19:43:34.638Z,27.22
2018-06-11T19:46:03.055Z,27.24
2018-06-11T19:48:31.512Z,27.09
2018-06-11T19:51:00.204Z,27.11
2018-06-11T19:53:28.754Z,27.36
2018-06-11T19:55:57.237Z,27.36
2018-06-11T19:58:25.645Z,27.18
2018-06-11T20:00:54.048Z,27.29
2018-06-11T20:03:22.569Z,27.38
2018-06-11T20:05:50.982Z,27.27
2018-06-11T20:08:19.461Z,26.96
2018-06-11T20:10:47.896Z,22.74
2018-06-11T20:13:16.464Z,23.05
2018-06-11T20:15:45.071Z,23.82
2018-06-11T20:18:13.539Z,23.96
2018-06-11T20:20:42.238Z,23.90
2018-06-11T20:23:10.655Z,23.75
2018-06-11T20:25:39.109Z,23.64
2018-06-11T20:28:07.554Z,23.50
2018-06-11T20:30:35.988Z,23.49
2018-06-11T20:33:04.444Z,23.77
2018-06-11T20:35:32.864Z,23.53
2018-06-11T20:38:01.395Z,23.49
2018-06-11T20:40:29.867Z,23.63
2018-06-11T20:42:58.307Z,23.57
2018-06-11T20:45:27.006Z,23.82
2018-06-11T20:47:55.831Z,23.54
2018-06-11T20:50:24.294Z,23.99
2018-06-11T20:52:52.718Z,23.79
2018-06-11T20:55:21.255Z,23.62
2018-06-11T20:57:49.724Z,23.59
2018-06-11T21:00:18.218Z,23.70
2018-06-11T21:02:47.058Z,23.53
2018-06-11T21:05:15.787Z,23.52
2018-06-11T21:07:45.177Z,23.66
2018-06-11T21:10:13.623Z,23.64
2018-06-11T21:12:42.059Z,23.67
2018-06-11T21:15:10.462Z,23.65
2018-06-11T21:17:38.935Z,23.60
2018-06-11T21:20:07.393Z,23.49
2018-06-11T21:22:35.876Z,23.42
2018-06-11T21:25:04.350Z,23.36
2018-06-11T21:27:33.751Z,23.32
2018-06-11T21:30:02.192Z,23.21
2018-06-11T21:32:30.606Z,23.13
2018-06-11T21:34:59.099Z,23.13
2018-06-11T21:37:27.753Z,22.99
2018-06-11T21:39:56.137Z,22.87
2018-06-11T21:42:24.539Z,22.68
2018-06-11T21:44:52.961Z,22.76
2018-06-11T21:47:21.722Z,22.52
2018-06-11T21:49:50.140Z,22.38
2018-06-11T21:52:18.544Z,22.33
2018-06-11T21:54:46.994Z,22.12
2018-06-11T21:57:15.415Z,21.81
2018-06-11T21:59:44.081Z,21.61
2018-06-11T22:02:12.483Z,21.42
2018-06-11T22:04:43.055Z,21.34
2018-06-11T22:07:11.622Z,21.34
2018-06-11T22:09:40.015Z,21.34
2018-06-11T22:12:08.742Z,21.36
2018-06-11T22:14:37.124Z,21.39
2018-06-11T22:17:05.601Z,21.46
2018-06-11T22:19:34.048Z,21.54
2018-06-11T22:22:02.468Z,21.60
2018-06-11T22:24:30.888Z,21.66
2018-06-11T22:26:59.319Z,21.72
2018-06-11T22:29:27.720Z,21.73
2018-06-11T22:31:56.167Z,21.79
2018-06-11T22:34:24.582Z,21.80
2018-06-11T22:36:53.027Z,21.82
2018-06-11T22:39:21.455Z,21.75
2018-06-11T22:41:49.879Z,21.76
2018-06-11T22:44:18.293Z,21.82
2018-06-11T22:46:46.711Z,21.50
2018-06-11T22:49:15.180Z,21.19
2018-06-11T22:51:43.598Z,21.02
2018-06-11T22:54:11.990Z,20.83
2018-06-11T22:56:40.448Z,20.70
2018-06-11T22:59:08.843Z,20.62
2018-06-11T23:01:37.235Z,20.63
2018-06-11T23:04:05.652Z,20.60
2018-06-11T23:06:34.115Z,20.48
2018-06-11T23:09:02.595Z,20.44
2018-06-11T23:11:30.987Z,20.49
2018-06-11T23:13:59.479Z,20.48
2018-06-11T23:16:27.923Z,20.50
2018-06-11T23:18:56.559Z,20.49
2018-06-11T23:21:24.987Z,20.61
2018-06-11T23:23:53.562Z,20.42
2018-06-11T23:26:22.221Z,20.60
2018-06-11T23:28:50.904Z,20.46
2018-06-11T23:31:19.370Z,20.62
2018-06-11T23:33:47.768Z,20.58
2018-06-11T23:36:16.375Z,20.61
2018-06-11T23:38:44.769Z,20.41
2018-06-11T23:41:13.175Z,20.44
2018-06-11T23:43:41.607Z,20.50
2018-06-11T23:46:10.176Z,20.60
2018-06-11T23:48:38.623Z,20.47
2018-06-11T23:51:07.372Z,20.43
2018-06-11T23:53:35.772Z,20.39
2018-06-11T23:56:04.204Z,20.38
2018-06-11T23:58:33.034Z,20.41
